Time,TemperatureF,DewpointF,PressureIn,WindDirection,WindDirectionDegrees,WindSpeedMPH,WindSpeedGustMPH,Humidity,HourlyPrecipIn,Conditions,Clouds,dailyrainin,SoftwareType,DateUTC
2013-06-04 00:02:00,69.0,58.0,28.22,East,100,0.0,6.0,67,0.00,,,0.00,,2013-06-04 05:02:00,
2013-06-04 00:12:00,69.0,58.0,28.22,East,100,0.0,6.0,67,0.00,,,0.00,,2013-06-04 05:12:00,
2013-06-04 00:22:00,69.0,58.0,28.22,East,97,2.0,5.0,68,0.00,,,0.00,,2013-06-04 05:22:00,
2013-06-04 00:32:00,69.0,58.0,28.22,East,97,2.0,5.0,68,0.00,,,0.00,,2013-06-04 05:32:00,
2013-06-04 00:42:00,69.0,58.0,28.22,East,97,2.0,5.0,68,0.00,,,0.00,,2013-06-04 05:42:00,
2013-06-04 00:52:00,69.0,58.0,28.22,ENE,76,0.0,8.0,69,0.00,,,0.00,,2013-06-04 05:52:00,
2013-06-04 01:02:00,68.0,58.0,28.20,NE,43,0.0,8.0,70,0.00,,,0.00,,2013-06-04 06:02:00,
2013-06-04 01:12:00,68.0,58.0,28.20,NE,43,0.0,8.0,70,0.00,,,0.00,,2013-06-04 06:12:00,
2013-06-04 01:22:00,68.0,58.0,28.20,NE,43,0.0,8.0,70,0.00,,,0.00,,2013-06-04 06:22:00,
2013-06-04 01:32:00,68.0,58.0,28.20,North,353,3.0,7.0,71,0.00,,,0.00,,2013-06-04 06:32:00,
2013-06-04 01:42:00,68.0,58.0,28.20,North,353,3.0,7.0,71,0.00,,,0.00,,2013-06-04 06:42:00,
2013-06-04 01:52:00,68.0,59.0,28.20,NE,47,0.0,7.0,72,0.00,,,0.00,,2013-06-04 06:52:00,
2013-06-04 02:02:00,68.0,59.0,28.20,NE,47,0.0,7.0,72,0.00,,,0.00,,2013-06-04 07:02:00,
2013-06-04 02:12:00,68.0,59.0,28.20,NE,47,0.0,7.0,72,0.00,,,0.00,,2013-06-04 07:12:00,
2013-06-04 02:22:00,68.0,59.0,28.20,NW,321,0.0,4.0,73,0.00,,,0.00,,2013-06-04 07:22:00,
2013-06-04 02:32:00,68.0,59.0,28.20,NW,321,0.0,4.0,73,0.00,,,0.00,,2013-06-04 07:32:00,
2013-06-04 02:42:00,68.0,59.0,28.20,NW,321,0.0,4.0,73,0.00,,,0.00,,2013-06-04 07:42:00,
2013-06-04 02:52:00,68.0,59.0,28.20,NW,321,0.0,4.0,73,0.00,,,0.00,,2013-06-04 07:52:00,
2013-06-04 03:02:00,68.0,60.0,28.17,NE,40,3.0,7.0,75,0.00,,,0.00,,2013-06-04 08:02:00,
2013-06-04 03:12:00,68.0,59.0,28.17,SSE,156,2.0,3.0,74,0.00,,,0.00,,2013-06-04 08:12:00,
2013-06-04 03:22:00,68.0,59.0,28.17,SSE,156,2.0,3.0,74,0.00,,,0.00,,2013-06-04 08:22:00,
2013-06-04 03:32:00,68.0,59.0,28.20,NNW,344,0.0,5.0,74,0.00,,,0.00,,2013-06-04 08:32:00,
2013-06-04 03:42:00,68.0,59.0,28.20,NNW,344,0.0,5.0,74,0.00,,,0.00,,2013-06-04 08:42:00,
2013-06-04 03:52:00,68.0,59.0,28.20,SSE,149,0.0,5.0,74,0.00,,,0.00,,2013-06-04 08:52:00,
2013-06-04 04:02:00,68.0,60.0,28.20,NNW,346,0.0,5.0,75,0.00,,,0.00,,2013-06-04 09:02:00,
2013-06-04 04:12:00,68.0,60.0,28.20,NNW,346,0.0,5.0,75,0.00,,,0.00,,2013-06-04 09:12:00,
2013-06-04 04:22:00,68.0,60.0,28.20,NNW,346,0.0,5.0,75,0.00,,,0.00,,2013-06-04 09:22:00,
2013-06-04 04:33:00,68.0,60.0,28.20,ENE,61,2.0,3.0,76,0.00,,,0.00,,2013-06-04 09:33:00,
2013-06-04 04:43:00,68.0,60.0,28.20,ENE,61,2.0,3.0,76,0.00,,,0.00,,2013-06-04 09:43:00,
2013-06-04 04:53:00,67.0,60.0,28.20,NNE,18,2.0,5.0,77,0.00,,,0.00,,2013-06-04 09:53:00,
2013-06-04 05:02:00,67.0,60.0,28.17,East,86,2.0,5.0,79,0.00,,,0.00,,2013-06-04 10:02:00,
2013-06-04 05:12:00,67.0,60.0,28.17,East,86,2.0,5.0,79,0.00,,,0.00,,2013-06-04 10:12:00,
2013-06-04 05:22:00,68.0,61.0,28.20,North,353,0.0,5.0,79,0.00,,,0.00,,2013-06-04 10:22:00,
2013-06-04 05:32:00,68.0,61.0,28.20,North,353,0.0,5.0,79,0.00,,,0.00,,2013-06-04 10:32:00,
2013-06-04 05:42:00,67.0,60.0,28.25,West,263,0.0,7.0,78,0.00,,,0.00,,2013-06-04 10:42:00,
2013-06-04 05:53:00,67.0,60.0,28.25,West,263,0.0,7.0,78,0.00,,,0.00,,2013-06-04 10:53:00,
2013-06-04 06:02:00,67.0,60.0,28.25,West,263,0.0,7.0,79,0.00,,,0.00,,2013-06-04 11:02:00,
2013-06-04 06:12:00,67.0,60.0,28.25,West,263,0.0,7.0,79,0.00,,,0.00,,2013-06-04 11:12:00,
2013-06-04 06:22:00,67.0,61.0,28.22,NNE,16,0.0,3.0,80,0.00,,,0.00,,2013-06-04 11:22:00,
2013-06-04 06:32:00,67.0,61.0,28.22,NNE,16,0.0,3.0,80,0.00,,,0.00,,2013-06-04 11:32:00,
2013-06-04 06:42:00,67.0,61.0,28.22,NNE,16,0.0,3.0,80,0.00,,,0.00,,2013-06-04 11:42:00,
2013-06-04 06:52:00,66.0,60.0,28.25,North,0,0.0,3.0,81,0.00,,,0.00,,2013-06-04 11:52:00,
2013-06-04 07:02:00,66.0,60.0,28.25,North,0,0.0,3.0,81,0.00,,,0.00,,2013-06-04 12:02:00,
2013-06-04 07:12:00,66.0,60.0,28.25,North,0,0.0,3.0,81,0.00,,,0.00,,2013-06-04 12:12:00,
2013-06-04 07:22:00,66.0,60.0,28.25,North,0,0.0,3.0,81,0.00,,,0.00,,2013-06-04 12:22:00,
2013-06-04 07:32:00,67.0,61.0,28.28,NW,319,0.0,0.0,82,0.00,,,0.00,,2013-06-04 12:32:00,
2013-06-04 07:42:00,67.0,61.0,28.28,NW,319,0.0,0.0,82,0.00,,,0.00,,2013-06-04 12:42:00,
2013-06-04 07:53:00,67.0,62.0,28.28,NW,319,0.0,0.0,83,0.00,,,0.00,,2013-06-04 12:53:00,
2013-06-04 08:02:00,68.0,63.0,28.28,NW,319,0.0,3.0,83,0.00,,,0.00,,2013-06-04 13:02:00,
2013-06-04 08:12:00,68.0,63.0,28.28,NW,319,0.0,3.0,83,0.00,,,0.00,,2013-06-04 13:12:00,
2013-06-04 08:22:00,68.0,63.0,28.28,NW,319,0.0,3.0,83,0.00,,,0.00,,2013-06-04 13:22:00,
2013-06-04 08:32:00,68.0,63.0,28.28,NW,319,0.0,3.0,83,0.00,,,0.00,,2013-06-04 13:32:00,
2013-06-04 08:42:00,68.0,63.0,28.28,NW,319,0.0,3.0,83,0.00,,,0.00,,2013-06-04 13:42:00,
2013-06-04 09:22:00,66.0,61.0,28.28,NNE,14,0.0,0.0,85,0.04,,,0.04,,2013-06-04 14:22:00,
2013-06-04 09:32:00,66.0,61.0,28.28,NNE,14,0.0,0.0,85,0.04,,,0.04,,2013-06-04 14:32:00,
2013-06-04 09:43:00,66.0,61.0,28.28,NNE,14,0.0,0.0,85,0.04,,,0.04,,2013-06-04 14:43:00,
2013-06-04 09:52:00,66.0,63.0,28.31,North,3,0.0,5.0,89,0.04,,,0.04,,2013-06-04 14:52:00,
2013-06-04 10:02:00,66.0,63.0,28.28,South,184,2.0,5.0,91,0.04,,,0.04,,2013-06-04 15:02:00,
2013-06-04 10:12:00,66.0,63.0,28.28,South,184,2.0,5.0,91,0.04,,,0.04,,2013-06-04 15:12:00,
2013-06-04 10:22:00,66.0,63.0,28.28,South,184,2.0,5.0,91,0.04,,,0.04,,2013-06-04 15:22:00,
2013-06-04 10:33:00,67.0,65.0,28.31,SSE,160,0.0,0.0,92,0.00,,,0.04,,2013-06-04 15:33:00,
2013-06-04 10:42:00,67.0,65.0,28.31,SSE,160,0.0,0.0,92,0.00,,,0.04,,2013-06-04 15:42:00,
2013-06-04 10:53:00,68.0,66.0,28.31,SE,141,2.0,5.0,92,0.00,,,0.04,,2013-06-04 15:53:00,
2013-06-04 11:03:00,68.0,66.0,28.31,SE,141,2.0,5.0,92,0.00,,,0.04,,2013-06-04 16:03:00,
2013-06-04 11:12:00,68.0,66.0,28.31,SE,141,2.0,5.0,92,0.00,,,0.04,,2013-06-04 16:12:00,
2013-06-04 11:22:00,69.0,67.0,28.34,SW,227,0.0,5.0,92,0.00,,,0.04,,2013-06-04 16:22:00,
2013-06-04 11:33:00,69.0,67.0,28.34,SW,227,0.0,5.0,92,0.00,,,0.04,,2013-06-04 16:33:00,
2013-06-04 11:42:00,69.0,67.0,28.34,SW,227,0.0,5.0,92,0.00,,,0.04,,2013-06-04 16:42:00,
2013-06-04 11:52:00,69.0,67.0,28.34,SW,227,0.0,5.0,92,0.00,,,0.04,,2013-06-04 16:52:00,
2013-06-04 12:03:00,74.0,71.0,28.31,SSE,162,0.0,5.0,91,0.00,,,0.04,,2013-06-04 17:03:00,
2013-06-04 12:12:00,74.0,71.0,28.31,SSE,162,0.0,5.0,91,0.00,,,0.04,,2013-06-04 17:12:00,
2013-06-04 12:23:00,74.0,71.0,28.31,SSE,162,0.0,5.0,91,0.00,,,0.04,,2013-06-04 17:23:00,
2013-06-04 12:33:00,74.0,71.0,28.31,SSE,162,0.0,5.0,91,0.00,,,0.04,,2013-06-04 17:33:00,
2013-06-04 12:42:00,74.0,71.0,28.31,SSE,162,0.0,5.0,91,0.00,,,0.04,,2013-06-04 17:42:00,
2013-06-04 12:52:00,80.0,62.0,28.31,SW,232,5.0,5.0,55,0.00,,,0.04,,2013-06-04 17:52:00,
2013-06-04 13:02:00,80.0,62.0,28.31,SW,232,5.0,5.0,55,0.00,,,0.04,,2013-06-04 18:02:00,
2013-06-04 13:12:00,80.0,62.0,28.31,SW,232,5.0,5.0,55,0.00,,,0.04,,2013-06-04 18:12:00,
2013-06-04 13:22:00,80.0,62.0,28.31,SW,232,5.0,5.0,55,0.00,,,0.04,,2013-06-04 18:22:00,
2013-06-04 13:32:00,82.0,60.0,28.31,ENE,66,3.0,8.0,47,0.00,,,0.04,,2013-06-04 18:32:00,
2013-06-04 13:42:00,82.0,60.0,28.31,ENE,66,3.0,8.0,47,0.00,,,0.04,,2013-06-04 18:42:00,
2013-06-04 13:53:00,82.0,60.0,28.31,ENE,66,3.0,8.0,47,0.00,,,0.04,,2013-06-04 18:53:00,
2013-06-04 14:02:00,82.0,55.0,28.28,SSW,204,5.0,8.0,40,0.00,,,0.04,,2013-06-04 19:02:00,
2013-06-04 14:12:00,82.0,55.0,28.28,SSW,204,5.0,8.0,40,0.00,,,0.04,,2013-06-04 19:12:00,
2013-06-04 14:22:00,82.0,55.0,28.28,SW,214,5.0,7.0,40,0.00,,,0.04,,2013-06-04 19:22:00,
2013-06-04 14:32:00,83.0,57.0,28.28,WSW,252,3.0,8.0,41,0.00,,,0.04,,2013-06-04 19:32:00,
2013-06-04 14:42:00,83.0,57.0,28.28,WSW,252,3.0,8.0,41,0.00,,,0.04,,2013-06-04 19:42:00,
2013-06-04 14:52:00,83.0,57.0,28.28,WNW,301,3.0,8.0,41,0.00,,,0.04,,2013-06-04 19:52:00,
2013-06-04 15:02:00,84.0,57.0,28.28,SSW,211,3.0,8.0,40,0.00,,,0.04,,2013-06-04 20:02:00,
2013-06-04 15:12:00,84.0,57.0,28.28,SSW,211,3.0,8.0,40,0.00,,,0.04,,2013-06-04 20:12:00,
2013-06-04 15:22:00,84.0,57.0,28.28,SSW,211,3.0,8.0,40,0.00,,,0.04,,2013-06-04 20:22:00,
2013-06-04 15:32:00,85.0,57.0,28.28,WSW,251,3.0,8.0,38,0.00,,,0.04,,2013-06-04 20:32:00,
2013-06-04 15:42:00,85.0,57.0,28.28,WSW,251,3.0,8.0,38,0.00,,,0.04,,2013-06-04 20:42:00,
2013-06-04 15:53:00,84.0,54.0,28.28,SSE,151,3.0,8.0,36,0.00,,,0.04,,2013-06-04 20:53:00,
2013-06-04 16:02:00,84.0,54.0,28.28,SSE,151,3.0,8.0,36,0.00,,,0.04,,2013-06-04 21:02:00,
2013-06-04 16:12:00,84.0,54.0,28.28,SSE,151,3.0,8.0,36,0.00,,,0.04,,2013-06-04 21:12:00,
2013-06-04 16:22:00,84.0,55.0,28.28,West,276,0.0,5.0,37,0.00,,,0.04,,2013-06-04 21:22:00,
2013-06-04 16:33:00,84.0,55.0,28.28,SW,216,2.0,5.0,37,0.00,,,0.04,,2013-06-04 21:33:00,
2013-06-04 16:42:00,84.0,55.0,28.28,SW,216,2.0,5.0,37,0.00,,,0.04,,2013-06-04 21:42:00,
2013-06-04 16:53:00,83.0,57.0,28.28,West,262,0.0,5.0,41,0.00,,,0.04,,2013-06-04 21:53:00,
2013-06-04 17:02:00,83.0,57.0,28.28,West,262,0.0,5.0,41,0.00,,,0.04,,2013-06-04 22:02:00,
2013-06-04 17:12:00,83.0,57.0,28.28,West,262,0.0,5.0,41,0.00,,,0.04,,2013-06-04 22:12:00,
2013-06-04 17:22:00,83.0,57.0,28.28,West,262,0.0,5.0,41,0.00,,,0.04,,2013-06-04 22:22:00,
2013-06-04 17:32:00,83.0,57.0,28.28,SW,235,3.0,4.0,41,0.00,,,0.04,,2013-06-04 22:32:00,
2013-06-04 17:42:00,83.0,57.0,28.28,SW,235,3.0,4.0,41,0.00,,,0.04,,2013-06-04 22:42:00,
2013-06-04 17:52:00,84.0,57.0,28.28,North,7,2.0,6.0,40,0.00,,,0.04,,2013-06-04 22:52:00,
2013-06-04 18:02:00,84.0,57.0,28.28,North,0,4.0,6.0,40,0.00,,,0.04,,2013-06-04 23:02:00,
2013-06-04 18:12:00,84.0,57.0,28.28,North,0,4.0,6.0,40,0.00,,,0.04,,2013-06-04 23:12:00,
2013-06-04 18:22:00,84.0,57.0,28.28,North,0,3.0,6.0,40,0.00,,,0.04,,2013-06-04 23:22:00,
2013-06-04 18:32:00,83.0,57.0,28.28,North,353,2.0,4.0,41,0.00,,,0.04,,2013-06-04 23:32:00,
2013-06-04 18:42:00,83.0,57.0,28.28,North,353,2.0,4.0,41,0.00,,,0.04,,2013-06-04 23:42:00,
2013-06-04 18:52:00,83.0,58.0,28.28,North,0,2.0,4.0,42,0.00,,,0.04,,2013-06-04 23:52:00,
2013-06-04 19:02:00,83.0,57.0,28.28,North,0,0.0,4.0,41,0.00,,,0.04,,2013-06-05 00:02:00,
2013-06-04 19:12:00,83.0,57.0,28.28,North,0,0.0,4.0,41,0.00,,,0.04,,2013-06-05 00:12:00,
2013-06-04 19:22:00,83.0,58.0,28.28,North,357,0.0,4.0,42,0.00,,,0.04,,2013-06-05 00:22:00,
2013-06-04 19:32:00,82.0,57.0,28.28,ENE,65,0.0,3.0,42,0.00,,,0.04,,2013-06-05 00:32:00,
2013-06-04 19:42:00,82.0,57.0,28.28,ENE,65,0.0,3.0,42,0.00,,,0.04,,2013-06-05 00:42:00,
2013-06-04 19:52:00,82.0,58.0,28.28,North,11,0.0,4.0,44,0.00,,,0.04,,2013-06-05 00:52:00,
2013-06-04 20:02:00,81.0,61.0,28.28,ENE,75,5.0,5.0,51,0.00,,,0.04,,2013-06-05 01:02:00,
2013-06-04 20:12:00,81.0,61.0,28.28,ENE,75,5.0,5.0,51,0.00,,,0.04,,2013-06-05 01:12:00,
2013-06-04 20:22:00,80.0,63.0,28.28,North,0,0.0,3.0,57,0.00,,,0.04,,2013-06-05 01:22:00,
2013-06-04 20:32:00,79.0,63.0,28.28,East,83,0.0,4.0,58,0.00,,,0.04,,2013-06-05 01:32:00,
2013-06-04 20:42:00,79.0,63.0,28.28,East,83,0.0,4.0,58,0.00,,,0.04,,2013-06-05 01:42:00,
2013-06-04 20:52:00,78.0,64.0,28.28,NNE,31,3.0,5.0,62,0.00,,,0.04,,2013-06-05 01:52:00,
2013-06-04 21:02:00,78.0,64.0,28.28,NNE,31,3.0,5.0,62,0.00,,,0.04,,2013-06-05 02:02:00,
2013-06-04 21:12:00,78.0,64.0,28.28,NNE,31,3.0,5.0,62,0.00,,,0.04,,2013-06-05 02:12:00,
2013-06-04 21:22:00,76.0,64.0,28.31,NW,310,3.0,4.0,66,0.00,,,0.04,,2013-06-05 02:22:00,
2013-06-04 21:32:00,76.0,64.0,28.31,NW,310,3.0,4.0,66,0.00,,,0.04,,2013-06-05 02:32:00,
2013-06-04 21:42:00,76.0,64.0,28.31,NW,310,3.0,4.0,66,0.00,,,0.04,,2013-06-05 02:42:00,
2013-06-04 21:52:00,76.0,64.0,28.31,NW,310,3.0,4.0,66,0.00,,,0.04,,2013-06-05 02:52:00,
2013-06-04 22:02:00,74.0,64.0,28.31,SSW,194,2.0,7.0,70,0.00,,,0.04,,2013-06-05 03:02:00,
2013-06-04 22:12:00,74.0,64.0,28.31,SSW,194,2.0,7.0,70,0.00,,,0.04,,2013-06-05 03:12:00,
2013-06-04 22:22:00,74.0,64.0,28.31,SSW,194,2.0,7.0,70,0.00,,,0.04,,2013-06-05 03:22:00,
2013-06-04 22:33:00,73.0,64.0,28.34,SSW,207,0.0,5.0,73,0.00,,,0.04,,2013-06-05 03:33:00,
2013-06-04 22:43:00,73.0,64.0,28.34,SSW,207,0.0,5.0,73,0.00,,,0.04,,2013-06-05 03:43:00,
2013-06-04 22:53:00,72.0,64.0,28.34,NNW,348,2.0,7.0,75,0.00,,,0.04,,2013-06-05 03:53:00,
2013-06-04 23:02:00,72.0,64.0,28.34,NNW,348,2.0,7.0,75,0.00,,,0.04,,2013-06-05 04:02:00,
2013-06-04 23:13:00,72.0,64.0,28.34,NNW,348,2.0,7.0,75,0.00,,,0.04,,2013-06-05 04:13:00,
2013-06-04 23:22:00,72.0,64.0,28.34,NNW,348,2.0,7.0,75,0.00,,,0.04,,2013-06-05 04:22:00,
2013-06-04 23:33:00,72.0,64.0,28.37,South,172,2.0,5.0,76,0.00,,,0.04,,2013-06-05 04:33:00,
2013-06-04 23:42:00,72.0,64.0,28.37,South,172,2.0,5.0,76,0.00,,,0.04,,2013-06-05 04:42:00,
2013-06-04 23:53:00,71.0,63.0,28.37,NNE,14,0.0,5.0,76,0.00,,,0.04,,2013-06-05 04:53:00,